sensor_id;sensor_type;location;lat;lon;timestamp;P1;durP1;ratioP1;P2;durP2;ratioP2
28003;SDS011;15330;51.234;6.754;2023-04-01T00:01:20;4.30;;;1.08;;
28003;SDS011;15330;51.234;6.754;2023-04-01T00:03:45;4.90;;;1.15;;
28003;SDS011;15330;51.234;6.754;2023-04-01T00:06:12;9.82;;;1.30;;
28003;SDS011;15330;51.234;6.754;2023-04-01T00:08:39;5.25;;;1.15;;
28003;SDS011;15330;51.234;6.754;2023-04-01T00:11:05;3.33;;;0.88;;
28003;SDS011;15330;51.234;6.754;2023-04-01T00:13:30;3.20;;;1.10;;
28003;SDS011;15330;51.234;6.754;2023-04-01T00:15:55;5.68;;;1.00;;
28003;SDS011;15330;51.234;6.754;2023-04-01T00:18:21;4.63;;;0.90;;
28003;SDS011;15330;51.234;6.754;2023-04-01T00:20:48;2.75;;;0.80;;
28003;SDS011;15330;51.234;6.754;2023-04-01T00:23:15;3.63;;;1.00;;
28003;SDS011;15330;51.234;6.754;2023-04-01T00:25:42;4.50;;;1.05;;
28003;SDS011;15330;51.234;6.754;2023-04-01T00:28:08;5.38;;;0.90;;
28003;SDS011;15330;51.234;6.754;2023-04-01T00:30:35;3.90;;;0.90;;
28003;SDS011;15330;51.234;6.754;2023-04-01T00:33:01;1.10;;;0.95;;
28003;SDS011;15330;51.234;6.754;2023-04-01T00:35:27;3.70;;;0.80;;
28003;SDS011;15330;51.234;6.754;2023-04-01T00:37:52;4.68;;;1.20;;
28003;SDS011;15330;51.234;6.754;2023-04-01T00:40:28;2.00;;;0.70;;
28003;SDS011;15330;51.234;6.754;2023-04-01T00:42:58;1.48;;;0.70;;
28003;SDS011;15330;51.234;6.754;2023-04-01T00:47:53;1.90;;;0.60;;
28003;SDS011;15330;51.234;6.754;2023-04-01T00:50:21;4.32;;;0.70;;
28003;SDS011;15330;51.234;6.754;2023-04-01T00:52:50;2.15;;;0.70;;
28003;SDS011;15330;51.234;6.754;2023-04-01T00:55:15;5.20;;;0.82;;
28003;SDS011;15330;51.234;6.754;2023-04-01T00:57:44;6.93;;;0.73;;
28003;SDS011;15330;51.234;6.754;2023-04-01T01:00:11;2.33;;;0.95;;
28003;SDS011;15330;51.234;6.754;2023-04-01T01:02:41;4.28;;;0.80;;
28003;SDS011;15330;51.234;6.754;2023-04-01T01:05:08;2.80;;;1.02;;
28003;SDS011;15330;51.234;6.754;2023-04-01T01:07:40;2.50;;;0.60;;
28003;SDS011;15330;51.234;6.754;2023-04-01T01:21:02;1.60;;;0.55;;
28003;SDS011;15330;51.234;6.754;2023-04-01T01:26:25;1.38;;;0.60;;
28003;SDS011;15330;51.234;6.754;2023-04-01T01:37:42;3.47;;;0.65;;
28003;SDS011;15330;51.234;6.754;2023-04-01T01:40:10;3.45;;;0.60;;
28003;SDS011;15330;51.234;6.754;2023-04-01T01:42:38;4.30;;;0.85;;
28003;SDS011;15330;51.234;6.754;2023-04-01T01:45:08;1.30;;;0.57;;
28003;SDS011;15330;51.234;6.754;2023-04-01T01:47:37;2.13;;;0.70;;
28003;SDS011;15330;51.234;6.754;2023-04-01T01:50:04;2.30;;;0.65;;
28003;SDS011;15330;51.234;6.754;2023-04-01T01:52:31;2.30;;;0.50;;
28003;SDS011;15330;51.234;6.754;2023-04-01T01:54:57;3.65;;;0.98;;
28003;SDS011;15330;51.234;6.754;2023-04-01T01:57:24;2.03;;;0.77;;
28003;SDS011;15330;51.234;6.754;2023-04-01T01:59:54;3.85;;;0.75;;
28003;SDS011;15330;51.234;6.754;2023-04-01T02:02:26;3.55;;;0.70;;
28003;SDS011;15330;51.234;6.754;2023-04-01T02:04:56;2.28;;;0.70;;
28003;SDS011;15330;51.234;6.754;2023-04-01T02:07:26;3.10;;;0.80;;
28003;SDS011;15330;51.234;6.754;2023-04-01T02:09:56;2.70;;;0.80;;
28003;SDS011;15330;51.234;6.754;2023-04-01T02:12:22;1.45;;;0.70;;
28003;SDS011;15330;51.234;6.754;2023-04-01T02:14:51;3.55;;;1.00;;
28003;SDS011;15330;51.234;6.754;2023-04-01T02:17:20;1.23;;;0.70;;
28003;SDS011;15330;51.234;6.754;2023-04-01T02:19:52;1.92;;;0.70;;
28003;SDS011;15330;51.234;6.754;2023-04-01T02:22:25;1.50;;;0.77;;
28003;SDS011;15330;51.234;6.754;2023-04-01T02:24:54;1.98;;;0.60;;
28003;SDS011;15330;51.234;6.754;2023-04-01T02:27:23;1.25;;;0.55;;
28003;SDS011;15330;51.234;6.754;2023-04-01T02:29:50;2.20;;;0.73;;
28003;SDS011;15330;51.234;6.754;2023-04-01T02:32:16;2.10;;;0.77;;
28003;SDS011;15330;51.234;6.754;2023-04-01T02:34:44;4.03;;;0.90;;
28003;SDS011;15330;51.234;6.754;2023-04-01T02:37:11;1.40;;;0.50;;
28003;SDS011;15330;51.234;6.754;2023-04-01T02:39:38;4.53;;;0.70;;
28003;SDS011;15330;51.234;6.754;2023-04-01T02:42:03;2.45;;;0.98;;
28003;SDS011;15330;51.234;6.754;2023-04-01T02:44:29;2.55;;;0.80;;
28003;SDS011;15330;51.234;6.754;2023-04-01T02:46:54;1.98;;;0.75;;
28003;SDS011;15330;51.234;6.754;2023-04-01T02:49:19;3.05;;;1.10;;
28003;SDS011;15330;51.234;6.754;2023-04-01T02:51:45;1.60;;;1.10;;
28003;SDS011;15330;51.234;6.754;2023-04-01T02:54:10;4.75;;;1.17;;
28003;SDS011;15330;51.234;6.754;2023-04-01T02:56:36;5.53;;;1.85;;
28003;SDS011;15330;51.234;6.754;2023-04-01T02:59:01;3.70;;;1.60;;
28003;SDS011;15330;51.234;6.754;2023-04-01T03:01:26;9.00;;;2.15;;
28003;SDS011;15330;51.234;6.754;2023-04-01T03:03:52;2.70;;;1.27;;
28003;SDS011;15330;51.234;6.754;2023-04-01T03:06:17;4.38;;;2.83;;
28003;SDS011;15330;51.234;6.754;2023-04-01T03:08:43;2.80;;;2.30;;
28003;SDS011;15330;51.234;6.754;2023-04-01T03:11:09;2.95;;;1.70;;
28003;SDS011;15330;51.234;6.754;2023-04-01T03:13:35;3.22;;;1.13;;
28003;SDS011;15330;51.234;6.754;2023-04-01T03:16:00;2.60;;;1.00;;
28003;SDS011;15330;51.234;6.754;2023-04-01T03:18:26;2.50;;;1.08;;
28003;SDS011;15330;51.234;6.754;2023-04-01T03:20:51;4.50;;;1.15;;
28003;SDS011;15330;51.234;6.754;2023-04-01T03:23:17;2.85;;;0.70;;
28003;SDS011;15330;51.234;6.754;2023-04-01T03:25:44;1.35;;;0.50;;
28003;SDS011;15330;51.234;6.754;2023-04-01T03:28:10;2.00;;;0.47;;
28003;SDS011;15330;51.234;6.754;2023-04-01T03:30:35;2.33;;;0.50;;
28003;SDS011;15330;51.234;6.754;2023-04-01T03:33:01;3.08;;;0.68;;
28003;SDS011;15330;51.234;6.754;2023-04-01T03:35:27;1.02;;;0.70;;
28003;SDS011;15330;51.234;6.754;2023-04-01T03:37:53;3.60;;;0.80;;
28003;SDS011;15330;51.234;6.754;2023-04-01T03:40:19;5.72;;;1.00;;
28003;SDS011;15330;51.234;6.754;2023-04-01T03:42:45;3.80;;;0.93;;
28003;SDS011;15330;51.234;6.754;2023-04-01T03:45:10;1.67;;;0.70;;
28003;SDS011;15330;51.234;6.754;2023-04-01T03:47:37;2.45;;;1.17;;
28003;SDS011;15330;51.234;6.754;2023-04-01T03:50:03;1.75;;;0.80;;
28003;SDS011;15330;51.234;6.754;2023-04-01T03:52:30;3.95;;;1.00;;
28003;SDS011;15330;51.234;6.754;2023-04-01T03:54:55;1.30;;;1.10;;
28003;SDS011;15330;51.234;6.754;2023-04-01T03:57:21;1.75;;;0.90;;
28003;SDS011;15330;51.234;6.754;2023-04-01T03:59:46;1.42;;;0.80;;
28003;SDS011;15330;51.234;6.754;2023-04-01T04:02:12;1.77;;;1.00;;
28003;SDS011;15330;51.234;6.754;2023-04-01T04:04:37;2.58;;;1.60;;
28003;SDS011;15330;51.234;6.754;2023-04-01T04:07:02;4.43;;;1.70;;
28003;SDS011;15330;51.234;6.754;2023-04-01T04:09:29;2.58;;;1.70;;
28003;SDS011;15330;51.234;6.754;2023-04-01T04:11:55;2.13;;;1.30;;
28003;SDS011;15330;51.234;6.754;2023-04-01T04:14:22;3.67;;;1.63;;
28003;SDS011;15330;51.234;6.754;2023-04-01T04:16:48;4.97;;;1.70;;
28003;SDS011;15330;51.234;6.754;2023-04-01T04:19:13;3.80;;;1.30;;
28003;SDS011;15330;51.234;6.754;2023-04-01T04:21:40;2.25;;;1.02;;
28003;SDS011;15330;51.234;6.754;2023-04-01T04:24:06;0.82;;;0.80;;
28003;SDS011;15330;51.234;6.754;2023-04-01T04:26:32;2.03;;;0.85;;
28003;SDS011;15330;51.234;6.754;2023-04-01T04:28:57;2.30;;;1.23;;
28003;SDS011;15330;51.234;6.754;2023-04-01T04:31:23;2.95;;;1.15;;
28003;SDS011;15330;51.234;6.754;2023-04-01T04:33:49;2.25;;;1.10;;
28003;SDS011;15330;51.234;6.754;2023-04-01T04:36:16;3.47;;;1.30;;
28003;SDS011;15330;51.234;6.754;2023-04-01T04:38:41;1.55;;;1.33;;
28003;SDS011;15330;51.234;6.754;2023-04-01T04:41:10;2.15;;;1.25;;
28003;SDS011;15330;51.234;6.754;2023-04-01T04:43:37;3.67;;;1.70;;
28003;SDS011;15330;51.234;6.754;2023-04-01T04:46:04;3.40;;;1.10;;
28003;SDS011;15330;51.234;6.754;2023-04-01T04:48:36;3.58;;;2.20;;
28003;SDS011;15330;51.234;6.754;2023-04-01T04:51:02;3.30;;;2.20;;
28003;SDS011;15330;51.234;6.754;2023-04-01T04:53:28;5.35;;;3.20;;
28003;SDS011;15330;51.234;6.754;2023-04-01T04:55:53;3.83;;;3.08;;
28003;SDS011;15330;51.234;6.754;2023-04-01T04:58:19;4.20;;;3.72;;
28003;SDS011;15330;51.234;6.754;2023-04-01T05:00:45;6.95;;;4.47;;
28003;SDS011;15330;51.234;6.754;2023-04-01T05:03:11;6.60;;;3.92;;
28003;SDS011;15330;51.234;6.754;2023-04-01T05:05:38;5.75;;;3.72;;
28003;SDS011;15330;51.234;6.754;2023-04-01T05:08:04;6.82;;;3.95;;
28003;SDS011;15330;51.234;6.754;2023-04-01T05:10:29;6.13;;;4.63;;
28003;SDS011;15330;51.234;6.754;2023-04-01T05:12:56;6.85;;;4.03;;
28003;SDS011;15330;51.234;6.754;2023-04-01T05:15:22;5.28;;;4.40;;
28003;SDS011;15330;51.234;6.754;2023-04-01T05:17:47;6.57;;;4.20;;
28003;SDS011;15330;51.234;6.754;2023-04-01T05:20:13;9.10;;;6.60;;
28003;SDS011;15330;51.234;6.754;2023-04-01T05:22:42;8.88;;;6.82;;
28003;SDS011;15330;51.234;6.754;2023-04-01T05:25:08;8.18;;;7.15;;
28003;SDS011;15330;51.234;6.754;2023-04-01T05:27:34;11.65;;;7.70;;
28003;SDS011;15330;51.234;6.754;2023-04-01T05:29:59;9.27;;;7.32;;
28003;SDS011;15330;51.234;6.754;2023-04-01T05:32:25;11.30;;;5.63;;
28003;SDS011;15330;51.234;6.754;2023-04-01T05:34:51;7.03;;;3.47;;
28003;SDS011;15330;51.234;6.754;2023-04-01T05:37:18;4.47;;;3.40;;
28003;SDS011;15330;51.234;6.754;2023-04-01T05:39:43;3.47;;;2.65;;
28003;SDS011;15330;51.234;6.754;2023-04-01T05:42:08;4.25;;;2.63;;
28003;SDS011;15330;51.234;6.754;2023-04-01T05:44:34;5.75;;;2.90;;
28003;SDS011;15330;51.234;6.754;2023-04-01T05:47:00;7.13;;;3.45;;
28003;SDS011;15330;51.234;6.754;2023-04-01T05:49:26;5.53;;;3.08;;
28003;SDS011;15330;51.234;6.754;2023-04-01T05:51:51;5.13;;;2.78;;
28003;SDS011;15330;51.234;6.754;2023-04-01T05:54:17;4.53;;;3.33;;
28003;SDS011;15330;51.234;6.754;2023-04-01T05:56:42;7.10;;;3.63;;
28003;SDS011;15330;51.234;6.754;2023-04-01T05:59:09;5.80;;;2.90;;
28003;SDS011;15330;51.234;6.754;2023-04-01T06:01:35;6.97;;;3.10;;
28003;SDS011;15330;51.234;6.754;2023-04-01T06:04:01;7.10;;;3.30;;
28003;SDS011;15330;51.234;6.754;2023-04-01T06:06:27;8.43;;;5.22;;
28003;SDS011;15330;51.234;6.754;2023-04-01T06:08:55;5.47;;;3.58;;
28003;SDS011;15330;51.234;6.754;2023-04-01T06:11:24;5.00;;;3.60;;
28003;SDS011;15330;51.234;6.754;2023-04-01T06:25:31;6.05;;;4.82;;
28003;SDS011;15330;51.234;6.754;2023-04-01T06:28:17;6.20;;;4.50;;
28003;SDS011;15330;51.234;6.754;2023-04-01T06:34:08;7.10;;;4.53;;
28003;SDS011;15330;51.234;6.754;2023-04-01T06:39:29;5.00;;;4.10;;
28003;SDS011;15330;51.234;6.754;2023-04-01T06:45:05;8.82;;;3.97;;
28003;SDS011;15330;51.234;6.754;2023-04-01T06:53:50;4.40;;;3.85;;
28003;SDS011;15330;51.234;6.754;2023-04-01T06:56:18;5.47;;;3.85;;
28003;SDS011;15330;51.234;6.754;2023-04-01T06:58:54;5.95;;;3.55;;
28003;SDS011;15330;51.234;6.754;2023-04-01T07:01:29;4.38;;;3.13;;
28003;SDS011;15330;51.234;6.754;2023-04-01T07:04:01;7.72;;;4.25;;
28003;SDS011;15330;51.234;6.754;2023-04-01T07:09:06;4.50;;;3.25;;
28003;SDS011;15330;51.234;6.754;2023-04-01T07:11:37;5.10;;;3.33;;
28003;SDS011;15330;51.234;6.754;2023-04-01T07:16:58;3.72;;;3.03;;
28003;SDS011;15330;51.234;6.754;2023-04-01T07:19:34;4.35;;;3.50;;
28003;SDS011;15330;51.234;6.754;2023-04-01T07:24:39;3.13;;;2.83;;
28003;SDS011;15330;51.234;6.754;2023-04-01T07:27:09;6.00;;;3.20;;
28003;SDS011;15330;51.234;6.754;2023-04-01T07:29:36;3.50;;;3.03;;
28003;SDS011;15330;51.234;6.754;2023-04-01T07:37:37;5.38;;;2.80;;
28003;SDS011;15330;51.234;6.754;2023-04-01T07:40:28;5.10;;;3.37;;
28003;SDS011;15330;51.234;6.754;2023-04-01T07:45:39;2.95;;;2.65;;
28003;SDS011;15330;51.234;6.754;2023-04-01T07:48:38;4.18;;;3.05;;
28003;SDS011;15330;51.234;6.754;2023-04-01T07:51:19;5.75;;;2.67;;
28003;SDS011;15330;51.234;6.754;2023-04-01T07:53:50;5.40;;;3.15;;
28003;SDS011;15330;51.234;6.754;2023-04-01T08:01:56;6.25;;;3.10;;
28003;SDS011;15330;51.234;6.754;2023-04-01T08:04:25;4.15;;;3.33;;
28003;SDS011;15330;51.234;6.754;2023-04-01T08:07:17;3.53;;;2.33;;
28003;SDS011;15330;51.234;6.754;2023-04-01T08:12:59;3.55;;;2.75;;
28003;SDS011;15330;51.234;6.754;2023-04-01T08:15:38;2.83;;;2.63;;
28003;SDS011;15330;51.234;6.754;2023-04-01T08:20:53;2.90;;;2.70;;
28003;SDS011;15330;51.234;6.754;2023-04-01T08:23:30;2.85;;;2.58;;
28003;SDS011;15330;51.234;6.754;2023-04-01T08:28:46;2.72;;;2.53;;
28003;SDS011;15330;51.234;6.754;2023-04-01T08:32:04;3.38;;;2.72;;
28003;SDS011;15330;51.234;6.754;2023-04-01T08:34:40;3.22;;;2.92;;
28003;SDS011;15330;51.234;6.754;2023-04-01T08:37:13;2.97;;;2.70;;
28003;SDS011;15330;51.234;6.754;2023-04-01T08:39:49;2.97;;;2.67;;
28003;SDS011;15330;51.234;6.754;2023-04-01T09:12:30;6.80;;;6.10;;
28003;SDS011;15330;51.234;6.754;2023-04-01T09:15:12;7.05;;;6.07;;
28003;SDS011;15330;51.234;6.754;2023-04-01T09:23:46;7.40;;;6.20;;
28003;SDS011;15330;51.234;6.754;2023-04-01T09:26:48;8.70;;;6.95;;
28003;SDS011;15330;51.234;6.754;2023-04-01T09:40:16;10.50;;;7.80;;
28003;SDS011;15330;51.234;6.754;2023-04-01T09:51:34;13.07;;;9.57;;
28003;SDS011;15330;51.234;6.754;2023-04-01T10:25:07;16.35;;;11.27;;
28003;SDS011;15330;51.234;6.754;2023-04-01T10:47:32;8.85;;;6.30;;
28003;SDS011;15330;51.234;6.754;2023-04-01T11:15:39;12.85;;;9.20;;
28003;SDS011;15330;51.234;6.754;2023-04-01T11:43:32;10.10;;;7.72;;
28003;SDS011;15330;51.234;6.754;2023-04-01T11:46:11;9.82;;;7.80;;
28003;SDS011;15330;51.234;6.754;2023-04-01T12:18:53;13.20;;;10.75;;
28003;SDS011;15330;51.234;6.754;2023-04-01T12:24:22;15.63;;;11.55;;
28003;SDS011;15330;51.234;6.754;2023-04-01T13:16:57;10.65;;;8.82;;
28003;SDS011;15330;51.234;6.754;2023-04-01T13:22:18;9.10;;;8.18;;
28003;SDS011;15330;51.234;6.754;2023-04-01T13:30:43;7.15;;;6.38;;
28003;SDS011;15330;51.234;6.754;2023-04-01T13:36:22;8.95;;;6.90;;
28003;SDS011;15330;51.234;6.754;2023-04-01T13:41:40;13.82;;;9.52;;
28003;SDS011;15330;51.234;6.754;2023-04-01T13:55:07;8.45;;;7.47;;
28003;SDS011;15330;51.234;6.754;2023-04-01T13:58:00;8.65;;;7.18;;
28003;SDS011;15330;51.234;6.754;2023-04-01T14:06:44;7.57;;;5.82;;
28003;SDS011;15330;51.234;6.754;2023-04-01T14:09:35;8.00;;;7.05;;
28003;SDS011;15330;51.234;6.754;2023-04-01T14:12:09;7.50;;;6.47;;
28003;SDS011;15330;51.234;6.754;2023-04-01T14:17:50;14.13;;;9.45;;
28003;SDS011;15330;51.234;6.754;2023-04-01T14:50:45;3.60;;;3.28;;
28003;SDS011;15330;51.234;6.754;2023-04-01T14:55:50;4.43;;;4.03;;
28003;SDS011;15330;51.234;6.754;2023-04-01T14:58:21;5.50;;;4.40;;
28003;SDS011;15330;51.234;6.754;2023-04-01T15:03:38;4.45;;;4.05;;
28003;SDS011;15330;51.234;6.754;2023-04-01T15:17:23;4.70;;;3.75;;
28003;SDS011;15330;51.234;6.754;2023-04-01T15:41:21;7.55;;;6.70;;
28003;SDS011;15330;51.234;6.754;2023-04-01T15:43:49;6.60;;;5.90;;
28003;SDS011;15330;51.234;6.754;2023-04-01T15:57:54;9.70;;;7.30;;
28003;SDS011;15330;51.234;6.754;2023-04-01T16:03:26;9.13;;;7.53;;
28003;SDS011;15330;51.234;6.754;2023-04-01T16:11:36;10.38;;;8.45;;
28003;SDS011;15330;51.234;6.754;2023-04-01T16:17:12;13.70;;;9.82;;
28003;SDS011;15330;51.234;6.754;2023-04-01T16:22:48;9.65;;;7.70;;
28003;SDS011;15330;51.234;6.754;2023-04-01T16:25:39;9.95;;;7.97;;
28003;SDS011;15330;51.234;6.754;2023-04-01T16:31:06;7.93;;;7.13;;
28003;SDS011;15330;51.234;6.754;2023-04-01T16:36:29;8.38;;;7.40;;
28003;SDS011;15330;51.234;6.754;2023-04-01T16:39:09;8.48;;;7.07;;
28003;SDS011;15330;51.234;6.754;2023-04-01T16:41:49;8.90;;;7.03;;
28003;SDS011;15330;51.234;6.754;2023-04-01T16:44:25;9.93;;;7.60;;
28003;SDS011;15330;51.234;6.754;2023-04-01T16:46:53;9.48;;;7.60;;
28003;SDS011;15330;51.234;6.754;2023-04-01T16:49:37;8.68;;;7.20;;
28003;SDS011;15330;51.234;6.754;2023-04-01T16:54:53;9.82;;;7.88;;
28003;SDS011;15330;51.234;6.754;2023-04-01T16:57:30;8.27;;;7.30;;
28003;SDS011;15330;51.234;6.754;2023-04-01T17:00:19;14.55;;;8.85;;
28003;SDS011;15330;51.234;6.754;2023-04-01T17:02:57;11.27;;;7.80;;
28003;SDS011;15330;51.234;6.754;2023-04-01T17:08:22;9.02;;;7.50;;
28003;SDS011;15330;51.234;6.754;2023-04-01T17:14:20;8.52;;;7.30;;
28003;SDS011;15330;51.234;6.754;2023-04-01T17:17:17;8.57;;;7.65;;
28003;SDS011;15330;51.234;6.754;2023-04-01T17:22:58;9.85;;;7.00;;
28003;SDS011;15330;51.234;6.754;2023-04-01T17:28:21;12.27;;;8.70;;
28003;SDS011;15330;51.234;6.754;2023-04-01T17:33:47;7.80;;;6.60;;
28003;SDS011;15330;51.234;6.754;2023-04-01T17:42:15;7.68;;;5.85;;
28003;SDS011;15330;51.234;6.754;2023-04-01T17:44:56;8.53;;;6.57;;
28003;SDS011;15330;51.234;6.754;2023-04-01T18:04:42;6.97;;;6.20;;
28003;SDS011;15330;51.234;6.754;2023-04-01T18:18:18;14.10;;;9.45;;
28003;SDS011;15330;51.234;6.754;2023-04-01T18:21:08;10.65;;;6.93;;
28003;SDS011;15330;51.234;6.754;2023-04-01T18:23:57;7.00;;;5.88;;
28003;SDS011;15330;51.234;6.754;2023-04-01T18:26:31;8.75;;;6.70;;
28003;SDS011;15330;51.234;6.754;2023-04-01T18:29:11;12.07;;;8.82;;
28003;SDS011;15330;51.234;6.754;2023-04-01T18:31:51;9.45;;;7.65;;
28003;SDS011;15330;51.234;6.754;2023-04-01T18:37:22;8.20;;;6.93;;
28003;SDS011;15330;51.234;6.754;2023-04-01T18:39:53;8.90;;;7.43;;
28003;SDS011;15330;51.234;6.754;2023-04-01T18:45:37;13.93;;;9.40;;
28003;SDS011;15330;51.234;6.754;2023-04-01T18:51:26;6.60;;;5.25;;
28003;SDS011;15330;51.234;6.754;2023-04-01T18:56:41;7.18;;;5.82;;
28003;SDS011;15330;51.234;6.754;2023-04-01T18:59:21;7.70;;;5.88;;
28003;SDS011;15330;51.234;6.754;2023-04-01T19:10:00;38.50;;;22.05;;
28003;SDS011;15330;51.234;6.754;2023-04-01T19:12:39;27.00;;;15.73;;
28003;SDS011;15330;51.234;6.754;2023-04-01T19:18:18;14.82;;;9.82;;
28003;SDS011;15330;51.234;6.754;2023-04-01T19:20:53;17.45;;;11.80;;
28003;SDS011;15330;51.234;6.754;2023-04-01T19:26:05;36.80;;;20.90;;
28003;SDS011;15330;51.234;6.754;2023-04-01T19:57:00;17.88;;;12.25;;
28003;SDS011;15330;51.234;6.754;2023-04-01T20:04:49;14.02;;;10.85;;
28003;SDS011;15330;51.234;6.754;2023-04-01T20:07:24;19.10;;;11.95;;
28003;SDS011;15330;51.234;6.754;2023-04-01T20:10:09;16.08;;;10.68;;
28003;SDS011;15330;51.234;6.754;2023-04-01T20:18:04;15.70;;;11.18;;
28003;SDS011;15330;51.234;6.754;2023-04-01T20:20:38;19.08;;;12.30;;
28003;SDS011;15330;51.234;6.754;2023-04-01T20:23:25;18.95;;;11.90;;
28003;SDS011;15330;51.234;6.754;2023-04-01T20:26:04;16.02;;;11.23;;
28003;SDS011;15330;51.234;6.754;2023-04-01T20:28:44;16.13;;;12.00;;
28003;SDS011;15330;51.234;6.754;2023-04-01T20:34:18;15.98;;;12.05;;
28003;SDS011;15330;51.234;6.754;2023-04-01T20:39:44;18.50;;;12.40;;
28003;SDS011;15330;51.234;6.754;2023-04-01T20:42:40;15.95;;;11.10;;
28003;SDS011;15330;51.234;6.754;2023-04-01T20:50:57;12.15;;;10.00;;
28003;SDS011;15330;51.234;6.754;2023-04-01T21:02:37;9.32;;;8.32;;
28003;SDS011;15330;51.234;6.754;2023-04-01T21:08:17;7.15;;;6.45;;
28003;SDS011;15330;51.234;6.754;2023-04-01T21:14:05;8.52;;;7.43;;
28003;SDS011;15330;51.234;6.754;2023-04-01T21:27:18;8.05;;;5.85;;
28003;SDS011;15330;51.234;6.754;2023-04-01T21:38:26;8.52;;;6.05;;
28003;SDS011;15330;51.234;6.754;2023-04-01T21:46:35;6.72;;;6.03;;
28003;SDS011;15330;51.234;6.754;2023-04-01T22:05:25;6.00;;;5.40;;
28003;SDS011;15330;51.234;6.754;2023-04-01T22:21:24;7.68;;;6.35;;
28003;SDS011;15330;51.234;6.754;2023-04-01T22:32:14;8.85;;;7.00;;
28003;SDS011;15330;51.234;6.754;2023-04-01T22:48:10;6.88;;;6.13;;
28003;SDS011;15330;51.234;6.754;2023-04-01T22:50:44;6.68;;;5.97;;
28003;SDS011;15330;51.234;6.754;2023-04-01T22:56:19;7.15;;;5.88;;
28003;SDS011;15330;51.234;6.754;2023-04-01T22:58:56;7.05;;;5.90;;
28003;SDS011;15330;51.234;6.754;2023-04-01T23:01:30;7.82;;;6.05;;
28003;SDS011;15330;51.234;6.754;2023-04-01T23:03:59;8.20;;;7.18;;
28003;SDS011;15330;51.234;6.754;2023-04-01T23:06:32;8.35;;;6.35;;
28003;SDS011;15330;51.234;6.754;2023-04-01T23:11:58;8.07;;;6.72;;
28003;SDS011;15330;51.234;6.754;2023-04-01T23:27:52;7.20;;;6.00;;
28003;SDS011;15330;51.234;6.754;2023-04-01T23:30:49;8.32;;;6.88;;
28003;SDS011;15330;51.234;6.754;2023-04-01T23:35:59;8.10;;;6.13;;
28003;SDS011;15330;51.234;6.754;2023-04-01T23:38:31;8.88;;;7.18;;
28003;SDS011;15330;51.234;6.754;2023-04-01T23:41:02;7.75;;;6.30;;
28003;SDS011;15330;51.234;6.754;2023-04-01T23:43:31;9.77;;;6.50;;
28003;SDS011;15330;51.234;6.754;2023-04-01T23:46:01;7.60;;;6.00;;
28003;SDS011;15330;51.234;6.754;2023-04-01T23:48:32;6.35;;;5.40;;
28003;SDS011;15330;51.234;6.754;2023-04-01T23:51:01;7.68;;;5.85;;
28003;SDS011;15330;51.234;6.754;2023-04-01T23:53:33;7.10;;;5.90;;
28003;SDS011;15330;51.234;6.754;2023-04-01T23:55:59;8.27;;;6.43;;
28003;SDS011;15330;51.234;6.754;2023-04-01T23:58:38;7.30;;;6.47;;
